Time;durP1;ratioP1;P1;durP2;ratioP2;P2;SDS_P1;SDS_P2;PMS_P1;PMS_P2;Temp;Humidity;BMP_temperature;BMP_pressure;BME280_temperature;BME280_humidity;BME280_pressure;Samples;Min_cycle;Max_cycle;Signal;HPM_P1;HPM_P2
2023/08/09 04:30:46;;;;;;;0.00;0.00;;;18.30;79.10;;;;;;5681896;23;20131;-77
2023/08/09 04:33:12;;;;;;;0.00;0.00;;;18.30;79.10;;;;;;4921446;29;20483;-77
2023/08/09 04:35:38;;;;;;;0.00;0.00;;;18.30;79.20;;;;;;4920179;29;20051;-77
2023/08/09 04:38:04;;;;;;;0.03;0.03;;;18.30;79.50;;;;;;4921804;29;20395;-77
2023/08/09 04:40:30;;;;;;;0.00;0.00;;;18.30;79.50;;;;;;4921885;29;20460;-77
2023/08/09 04:42:56;;;;;;;0.00;0.00;;;18.30;79.50;;;;;;4921885;29;20012;-77
2023/08/09 04:45:24;;;;;;;0.00;0.00;;;18.20;79.70;;;;;;4921329;29;20107;-77
2023/08/09 04:47:52;;;;;;;0.00;0.00;;;18.20;79.80;;;;;;4921994;29;20111;-77
2023/08/09 04:50:20;;;;;;;0.10;0.10;;;18.20;79.40;;;;;;4921549;29;20064;-77
2023/08/09 04:52:46;;;;;;;0.08;0.08;;;18.20;79.40;;;;;;4921720;29;20043;-77
2023/08/09 04:55:11;;;;;;;0.00;0.00;;;18.20;79.40;;;;;;4921704;29;20024;-77
2023/08/09 04:57:38;;;;;;;0.00;0.00;;;18.20;79.30;;;;;;4921874;29;20024;-77
2023/08/09 05:00:08;;;;;;;0.00;0.00;;;18.10;79.70;;;;;;4904294;29;20024;-77
2023/08/09 05:02:36;;;;;;;0.10;0.10;;;18.10;79.20;;;;;;4922034;29;20430;-77
2023/08/09 05:05:08;;;;;;;0.00;0.00;;;18.00;79.50;;;;;;4921747;29;20024;-77
2023/08/09 05:07:34;;;;;;;0.00;0.00;;;18.00;79.70;;;;;;4921858;29;20044;-77
2023/08/09 05:10:01;;;;;;;0.00;0.00;;;17.90;79.60;;;;;;4905439;29;20083;-77
2023/08/09 05:12:26;;;;;;;0.00;0.00;;;17.80;80.00;;;;;;4921936;29;20038;-78
2023/08/09 05:14:52;;;;;;;0.03;0.03;;;17.80;80.10;;;;;;4921822;29;20099;-77
2023/08/09 05:17:18;;;;;;;0.00;0.00;;;17.80;80.10;;;;;;4921639;29;20067;-77
2023/08/09 05:19:44;;;;;;;0.00;0.00;;;17.80;80.20;;;;;;4921541;29;20036;-77
2023/08/09 05:22:10;;;;;;;0.00;0.00;;;17.80;80.20;;;;;;4921511;29;20032;-77
2023/08/09 05:24:35;;;;;;;0.00;0.00;;;17.80;80.10;;;;;;4921660;29;20028;-77
2023/08/09 05:27:01;;;;;;;0.00;0.00;;;17.80;80.20;;;;;;4921533;29;20032;-77
2023/08/09 05:29:27;;;;;;;0.10;0.10;;;17.80;80.30;;;;;;4921557;29;20046;-77
2023/08/09 05:31:53;;;;;;;0.00;0.00;;;17.80;80.40;;;;;;4921505;29;20127;-77
2023/08/09 05:34:18;;;;;;;0.00;0.00;;;17.80;80.70;;;;;;4921305;29;20483;-77
2023/08/09 05:36:45;;;;;;;0.00;0.00;;;17.90;80.50;;;;;;4903956;29;20036;-77
2023/08/09 05:39:12;;;;;;;0.00;0.00;;;17.90;80.80;;;;;;4921287;29;20020;-77
2023/08/09 05:41:38;;;;;;;0.00;0.00;;;17.90;80.80;;;;;;4904284;29;20028;-77
2023/08/09 05:44:04;;;;;;;0.00;0.00;;;18.00;80.90;;;;;;4921333;29;20060;-77
2023/08/09 05:46:30;;;;;;;0.10;0.10;;;18.00;80.70;;;;;;4921354;29;20035;-77
2023/08/09 05:48:56;;;;;;;0.00;0.00;;;18.10;80.50;;;;;;4921279;29;20020;-77
2023/08/09 05:51:22;;;;;;;0.05;0.00;;;18.00;80.40;;;;;;4921184;29;20471;-77
2023/08/09 05:53:47;;;;;;;0.03;0.03;;;18.20;80.10;;;;;;4921339;29;20107;-77
2023/08/09 05:56:13;;;;;;;0.00;0.00;;;18.20;79.90;;;;;;4921382;29;20047;-77
2023/08/09 05:58:38;;;;;;;0.00;0.00;;;18.20;79.50;;;;;;4921131;29;20088;-77
2023/08/09 06:01:07;;;;;;;0.00;0.00;;;18.20;79.70;;;;;;4921049;29;20064;-77
2023/08/09 06:03:34;;;;;;;0.00;0.00;;;18.20;79.80;;;;;;4920981;29;20028;-76
2023/08/09 06:06:00;;;;;;;0.25;0.00;;;18.10;79.60;;;;;;4920950;29;20016;-76
2023/08/09 06:08:26;;;;;;;0.00;0.00;;;18.10;79.70;;;;;;4920432;29;20027;-77
2023/08/09 06:10:52;;;;;;;0.00;0.00;;;18.10;79.70;;;;;;4921232;29;20107;-76
2023/08/09 06:13:18;;;;;;;0.00;0.00;;;18.10;79.60;;;;;;4921192;29;20051;-76
2023/08/09 06:15:44;;;;;;;0.00;0.00;;;18.20;79.50;;;;;;4919854;29;20036;-76
2023/08/09 06:18:09;;;;;;;0.10;0.10;;;18.20;79.30;;;;;;4921033;29;20391;-76
2023/08/09 06:20:35;;;;;;;0.00;0.00;;;18.20;79.50;;;;;;4920820;29;20411;-77
2023/08/09 06:23:00;;;;;;;0.10;0.10;;;18.20;79.50;;;;;;4920937;29;20024;-76
2023/08/09 06:25:26;;;;;;;0.00;0.00;;;18.20;79.50;;;;;;4921196;29;20088;-76
2023/08/09 06:27:53;;;;;;;0.00;0.00;;;18.30;79.70;;;;;;4921082;29;20032;-77
2023/08/09 06:30:19;;;;;;;0.08;0.08;;;18.30;79.20;;;;;;4920851;29;20041;-77
2023/08/09 06:32:45;;;;;;;0.00;0.00;;;18.50;78.90;;;;;;4920973;29;20107;-77
2023/08/09 06:35:10;;;;;;;0.10;0.10;;;18.70;78.80;;;;;;4919200;29;20055;-77
2023/08/09 06:37:36;;;;;;;0.08;0.08;;;18.80;78.70;;;;;;4903222;29;20498;-76
2023/08/09 06:40:06;;;;;;;0.00;0.00;;;18.80;78.50;;;;;;4920895;29;20499;-76
2023/08/09 06:42:32;;;;;;;0.10;0.10;;;18.80;78.60;;;;;;4920888;29;20024;-76
2023/08/09 06:44:57;;;;;;;0.10;0.10;;;18.90;78.30;;;;;;4920799;29;20095;-76
2023/08/09 06:47:23;;;;;;;0.00;0.00;;;19.00;78.10;;;;;;4923050;29;20480;-76
2023/08/09 06:49:48;;;;;;;0.00;0.00;;;19.00;78.10;;;;;;4924389;29;20491;-77
2023/08/09 06:52:14;;;;;;;0.05;0.00;;;19.10;78.00;;;;;;4924125;29;20039;-77
2023/08/09 06:54:40;;;;;;;0.00;0.00;;;19.20;77.90;;;;;;4907200;29;20028;-77
2023/08/09 06:57:05;;;;;;;0.10;0.10;;;19.30;77.60;;;;;;4924267;29;20431;-77
2023/08/09 06:59:31;;;;;;;0.08;0.08;;;19.30;77.40;;;;;;4907063;29;20032;-77
2023/08/09 07:01:56;;;;;;;0.08;0.08;;;19.40;77.20;;;;;;4924112;29;20020;-77
2023/08/09 07:04:22;;;;;;;0.10;0.10;;;19.50;77.10;;;;;;4924130;29;20032;-77
2023/08/09 07:06:48;;;;;;;0.00;0.00;;;19.50;77.30;;;;;;4923701;29;20513;-77
2023/08/09 07:09:15;;;;;;;0.00;0.00;;;19.60;76.90;;;;;;4924009;29;20459;-77
2023/08/09 07:11:40;;;;;;;0.00;0.00;;;19.80;76.80;;;;;;4924009;29;20080;-77
2023/08/09 07:14:06;;;;;;;0.00;0.00;;;19.80;76.50;;;;;;4923947;29;20032;-77
2023/08/09 07:16:32;;;;;;;0.00;0.00;;;19.90;76.30;;;;;;4923706;29;20020;-78
2023/08/09 07:18:57;;;;;;;0.00;0.00;;;19.90;76.10;;;;;;4923666;29;20024;-78
2023/08/09 07:21:23;;;;;;;0.00;0.00;;;20.00;76.10;;;;;;4906260;29;20032;-78
2023/08/09 07:23:48;;;;;;;0.00;0.00;;;20.10;76.00;;;;;;4923760;29;20039;-78
2023/08/09 07:26:14;;;;;;;0.00;0.00;;;20.20;75.80;;;;;;4923861;29;20024;-77
2023/08/09 07:28:39;;;;;;;0.10;0.10;;;20.20;75.30;;;;;;4923726;29;20519;-78
2023/08/09 07:31:20;;;;;;;0.00;0.00;;;20.30;75.30;;;;;;4923503;29;20087;-78
2023/08/09 07:33:46;;;;;;;0.00;0.00;;;20.30;75.40;;;;;;4923739;29;20028;-78
2023/08/09 07:36:12;;;;;;;0.00;0.00;;;20.40;74.90;;;;;;4923315;29;20399;-78
2023/08/09 07:38:37;;;;;;;0.00;0.00;;;20.50;74.60;;;;;;4906168;29;20034;-78
2023/08/09 07:41:04;;;;;;;0.00;0.00;;;20.80;74.40;;;;;;4906316;29;20059;-78
2023/08/09 07:43:30;;;;;;;0.00;0.00;;;20.90;73.80;;;;;;4923376;29;20068;-78
2023/08/09 07:45:55;;;;;;;0.08;0.08;;;21.00;73.20;;;;;;4923395;29;20028;-77
2023/08/09 07:48:22;;;;;;;0.05;0.05;;;21.10;73.70;;;;;;4923144;29;20035;-78
2023/08/09 07:50:48;;;;;;;0.00;0.00;;;21.20;73.70;;;;;;4923005;29;20028;-78
2023/08/09 07:53:13;;;;;;;0.00;0.00;;;21.30;72.90;;;;;;4923276;29;20047;-78
2023/08/09 07:55:39;;;;;;;0.10;0.10;;;21.50;72.40;;;;;;4922903;29;20036;-78
2023/08/09 07:58:05;;;;;;;0.10;0.10;;;21.70;71.40;;;;;;4922834;29;20464;-78
2023/08/09 08:00:31;;;;;;;0.10;0.10;;;21.90;71.20;;;;;;4905784;29;20133;-78
2023/08/09 08:02:57;;;;;;;0.08;0.08;;;22.10;70.80;;;;;;4923084;29;20076;-78
2023/08/09 08:05:23;;;;;;;0.10;0.10;;;22.50;69.80;;;;;;4922711;29;20017;-78
2023/08/09 08:07:48;;;;;;;0.10;0.10;;;22.50;68.90;;;;;;4923019;29;20075;-78
2023/08/09 08:10:14;;;;;;;0.10;0.10;;;22.70;68.70;;;;;;4922290;29;20071;-78
2023/08/09 08:12:42;;;;;;;0.10;0.10;;;22.80;68.20;;;;;;4923243;29;20028;-78
2023/08/09 08:15:08;;;;;;;0.10;0.10;;;23.70;66.80;;;;;;4922831;29;20075;-79
2023/08/09 08:17:34;;;;;;;0.10;0.10;;;24.50;64.20;;;;;;4922429;29;20036;-78
2023/08/09 08:20:00;;;;;;;0.10;0.10;;;24.40;63.50;;;;;;4921250;29;20028;-79
2023/08/09 08:22:26;;;;;;;0.10;0.10;;;24.30;64.00;;;;;;4922443;29;20035;-78
2023/08/09 08:24:52;;;;;;;0.10;0.10;;;24.30;64.00;;;;;;4922725;29;20447;-78
2023/08/09 08:27:17;;;;;;;0.10;0.10;;;24.90;62.60;;;;;;4922455;29;20028;-78
2023/08/09 08:29:43;;;;;;;0.10;0.10;;;25.20;61.20;;;;;;4921122;29;20031;-78
2023/08/09 08:32:10;;;;;;;0.10;0.10;;;25.30;60.70;;;;;;4922376;29;20393;-78
2023/08/09 08:34:37;;;;;;;0.13;0.13;;;25.70;59.70;;;;;;4922688;29;20060;-78
2023/08/09 08:37:04;;;;;;;0.20;0.20;;;25.90;59.00;;;;;;4922090;29;20052;-78
2023/08/09 08:39:35;;;;;;;0.15;0.15;;;26.30;58.50;;;;;;4905225;29;20479;-79
2023/08/09 08:42:01;;;;;;;0.20;0.20;;;26.80;57.30;;;;;;4922356;29;20027;-79
2023/08/09 08:44:27;;;;;;;0.10;0.10;;;27.30;55.20;;;;;;4921868;29;20087;-79
2023/08/09 08:46:52;;;;;;;0.10;0.10;;;27.50;55.20;;;;;;4922190;29;20016;-79
2023/08/09 08:49:23;;;;;;;0.00;0.00;;;27.30;55.10;;;;;;4922491;29;20039;-78
2023/08/09 08:51:52;;;;;;;0.00;0.00;;;27.10;54.90;;;;;;4921967;29;20023;-78
2023/08/09 08:54:18;;;;;;;0.00;0.00;;;26.80;56.80;;;;;;4922334;29;20024;-78
2023/08/09 08:56:45;;;;;;;0.00;0.00;;;26.60;57.10;;;;;;4922153;29;20024;-78
2023/08/09 08:59:11;;;;;;;0.10;0.10;;;26.30;58.20;;;;;;4921928;29;20055;-78
2023/08/09 09:01:37;;;;;;;0.30;0.30;;;26.10;58.00;;;;;;4904780;29;20063;-78
2023/08/09 09:04:03;;;;;;;0.10;0.10;;;26.50;58.00;;;;;;4921964;29;20024;-78
2023/08/09 09:06:28;;;;;;;0.10;0.10;;;27.00;57.30;;;;;;4921667;29;20054;-78
2023/08/09 09:08:55;;;;;;;0.10;0.10;;;27.60;55.90;;;;;;4905227;29;20123;-78
2023/08/09 09:11:22;;;;;;;0.10;0.10;;;27.90;53.50;;;;;;4904780;29;20028;-78
2023/08/09 09:13:50;;;;;;;0.10;0.10;;;28.10;54.30;;;;;;4921832;29;20028;-78
2023/08/09 09:16:18;;;;;;;0.10;0.10;;;28.40;53.70;;;;;;4904456;29;20079;-78
2023/08/09 09:18:46;;;;;;;0.10;0.10;;;28.70;53.30;;;;;;4921763;29;20176;-78
2023/08/09 09:21:16;;;;;;;0.10;0.10;;;29.10;52.10;;;;;;4904352;29;20533;-78
2023/08/09 09:23:42;;;;;;;0.10;0.10;;;29.80;50.60;;;;;;4921708;29;20097;-78
2023/08/09 09:26:17;;;;;;;0.40;0.40;;;30.10;49.50;;;;;;4921649;29;20495;-78
2023/08/09 09:28:45;;;;;;;0.50;0.50;;;30.90;48.10;;;;;;4921929;29;20028;-78
2023/08/09 09:31:13;;;;;;;0.30;0.30;;;31.80;45.80;;;;;;4921675;29;20052;-79
2023/08/09 09:33:43;;;;;;;0.50;0.50;;;32.40;45.50;;;;;;4921477;29;20024;-79
2023/08/09 09:36:12;;;;;;;0.60;0.60;;;32.80;43.80;;;;;;4921309;29;20122;-79
2023/08/09 09:38:39;;;;;;;0.40;0.40;;;33.40;43.10;;;;;;4921469;29;20024;-79
2023/08/09 09:41:07;;;;;;;0.10;0.10;;;33.80;42.30;;;;;;4921413;29;20513;-79
2023/08/09 09:43:36;;;;;;;0.00;0.00;;;32.10;45.00;;;;;;4921579;29;20017;-79
2023/08/09 09:46:02;;;;;;;0.10;0.10;;;31.60;45.40;;;;;;4921343;29;20035;-79
2023/08/09 09:48:29;;;;;;;0.10;0.10;;;31.30;46.70;;;;;;4921407;29;20114;-78
2023/08/09 09:50:56;;;;;;;0.20;0.20;;;31.80;46.30;;;;;;4921206;29;20032;-79
2023/08/09 09:53:22;;;;;;;0.55;0.55;;;31.50;46.80;;;;;;4921243;29;20027;-79
2023/08/09 09:55:49;;;;;;;0.10;0.10;;;32.10;45.60;;;;;;4921539;29;20459;-79
2023/08/09 09:58:16;;;;;;;0.50;0.50;;;31.80;46.20;;;;;;4904189;29;20032;-79
2023/08/09 10:00:49;;;;;;;0.50;0.50;;;31.30;46.90;;;;;;4904002;29;20673;-78
2023/08/09 10:03:18;;;;;;;0.70;0.70;;;32.30;45.50;;;;;;4921521;29;20113;-79
2023/08/09 10:05:46;;;;;;;0.80;0.80;;;33.30;43.80;;;;;;4904053;29;20047;-79
2023/08/09 10:08:13;;;;;;;0.30;0.30;;;34.20;42.50;;;;;;4921268;29;20095;-79
2023/08/09 10:10:41;;;;;;;0.20;0.20;;;34.20;42.40;;;;;;4920906;29;20395;-79
2023/08/09 10:13:07;;;;;;;0.30;0.30;;;33.40;42.40;;;;;;4920915;29;20047;-79
2023/08/09 10:15:42;;;;;;;0.20;0.20;;;33.20;43.30;;;;;;4921145;29;20083;-79
2023/08/09 10:18:41;;;;;;;0.20;0.20;;;32.90;43.60;;;;;;4910217;29;20048;-79
2023/08/09 10:21:09;;;;;;;0.50;0.50;;;32.50;45.00;;;;;;4918862;29;20040;-79
2023/08/09 10:23:35;;;;;;;0.30;0.30;;;32.90;45.10;;;;;;4924767;29;20104;-79
2023/08/09 10:26:01;;;;;;;0.40;0.40;;;32.80;43.90;;;;;;4907637;29;20051;-79
2023/08/09 10:29:10;;;;;;;0.30;0.30;;;32.70;44.30;;;;;;4907788;29;20024;-79
2023/08/09 10:31:48;;;;;;;0.00;0.00;;;32.80;45.50;;;;;;4919332;29;20052;-78
2023/08/09 10:34:15;;;;;;;0.00;0.00;;;31.80;45.10;;;;;;4924499;29;20028;-79
2023/08/09 10:36:41;;;;;;;0.00;0.00;;;31.10;46.90;;;;;;4924253;29;20496;-79
2023/08/09 10:39:18;;;;;;;0.10;0.10;;;30.60;47.50;;;;;;4907456;29;20020;-79
2023/08/09 10:41:59;;;;;;;0.00;0.00;;;30.10;48.10;;;;;;4924051;29;20028;-78
2023/08/09 10:44:44;;;;;;;0.00;0.00;;;30.00;49.70;;;;;;4924471;29;20049;-78
2023/08/09 10:47:20;;;;;;;0.00;0.00;;;29.80;50.30;;;;;;4924386;29;20081;-78
2023/08/09 10:49:48;;;;;;;0.00;0.00;;;29.60;50.70;;;;;;4924224;29;20039;-78
2023/08/09 10:52:18;;;;;;;0.00;0.00;;;29.70;51.10;;;;;;4907053;29;20115;-78
2023/08/09 10:54:46;;;;;;;0.00;0.00;;;29.60;51.60;;;;;;4924329;29;20020;-79
2023/08/09 10:57:12;;;;;;;0.00;0.00;;;29.30;51.20;;;;;;4924333;29;20066;-78
2023/08/09 10:59:39;;;;;;;0.00;0.00;;;29.10;52.10;;;;;;4906793;29;20032;-78
2023/08/09 11:02:06;;;;;;;0.10;0.10;;;29.30;52.20;;;;;;4924139;29;20032;-78
2023/08/09 11:04:32;;;;;;;0.10;0.10;;;29.50;51.70;;;;;;4924122;29;20020;-78
2023/08/09 11:06:58;;;;;;;0.00;0.00;;;29.50;50.60;;;;;;4923240;29;20055;-79
2023/08/09 11:09:25;;;;;;;0.00;0.00;;;29.30;51.20;;;;;;4923988;29;20020;-78
2023/08/09 11:11:51;;;;;;;0.00;0.00;;;29.20;51.90;;;;;;4923954;29;20729;-79
2023/08/09 11:14:19;;;;;;;0.00;0.00;;;29.20;51.90;;;;;;4924018;29;20111;-78
2023/08/09 11:16:45;;;;;;;0.00;0.00;;;29.10;51.50;;;;;;4923720;29;20039;-79
2023/08/09 11:19:19;;;;;;;0.00;0.00;;;29.00;52.20;;;;;;4923796;29;20024;-79
2023/08/09 11:21:48;;;;;;;0.10;0.10;;;29.00;52.20;;;;;;4923435;29;20032;-79
2023/08/09 11:24:15;;;;;;;0.10;0.10;;;29.00;52.30;;;;;;4923774;29;20024;-78
2023/08/09 11:26:57;;;;;;;0.00;0.00;;;29.00;52.80;;;;;;4923677;29;20024;-78
2023/08/09 11:29:25;;;;;;;;;;;29.00;52.50;;;;;;4924085;29;20440;-78
2023/08/09 11:31:53;;;;;;;0.00;0.00;;;28.90;52.30;;;;;;4906224;29;19947;-78
2023/08/09 11:34:21;;;;;;;0.00;0.00;;;29.10;54.20;;;;;;4906582;29;20105;-78
2023/08/09 11:36:49;;;;;;;0.00;0.00;;;29.10;53.30;;;;;;4923125;29;20062;-78
2023/08/09 11:39:15;;;;;;;0.10;0.10;;;29.00;52.80;;;;;;4923290;29;20719;-78
2023/08/09 11:41:53;;;;;;;0.00;0.00;;;29.00;52.90;;;;;;4923527;29;20028;-78
2023/08/09 11:44:22;;;;;;;0.10;0.10;;;29.10;54.00;;;;;;4923591;29;20024;-78
2023/08/09 11:46:49;;;;;;;0.00;0.00;;;29.30;54.50;;;;;;4923500;29;20020;-79
2023/08/09 11:49:14;;;;;;;0.00;0.00;;;29.50;53.20;;;;;;4906081;29;20031;-79
2023/08/09 11:51:40;;;;;;;0.00;0.00;;;29.50;52.70;;;;;;4905992;29;20079;-79
2023/08/09 11:54:10;;;;;;;0.00;0.00;;;29.80;52.00;;;;;;4923349;29;20052;-79
2023/08/09 11:56:37;;;;;;;0.05;0.05;;;29.70;51.70;;;;;;4923196;29;20356;-79
2023/08/09 11:59:04;;;;;;;0.00;0.00;;;29.60;52.00;;;;;;4922984;29;20035;-79
2023/08/09 12:01:37;;;;;;;0.00;0.00;;;29.40;52.10;;;;;;4922881;29;20063;-79
2023/08/09 12:04:08;;;;;;;0.00;0.00;;;29.10;51.40;;;;;;4923239;29;20056;-79
2023/08/09 12:06:45;;;;;;;0.00;0.00;;;28.90;52.70;;;;;;4922456;29;20028;-79
2023/08/09 12:09:39;;;;;;;0.00;0.00;;;28.60;53.70;;;;;;4922813;29;20079;-79
2023/08/09 12:12:10;;;;;;;0.00;0.00;;;28.50;54.30;;;;;;4922963;29;20487;-79
2023/08/09 12:14:50;;;;;;;0.00;0.00;;;28.60;53.50;;;;;;4922899;29;20475;-79
2023/08/09 12:17:27;;;;;;;0.03;0.03;;;28.70;53.30;;;;;;4905757;29;20062;-78
2023/08/09 12:19:58;;;;;;;0.00;0.00;;;28.60;53.40;;;;;;4922482;29;20028;-78
2023/08/09 12:22:28;;;;;;;0.05;0.05;;;28.60;54.60;;;;;;4922075;29;20020;-78
2023/08/09 12:24:55;;;;;;;0.00;0.00;;;28.70;54.00;;;;;;4921067;29;20080;-78
2023/08/09 12:27:21;;;;;;;0.00;0.00;;;28.40;54.90;;;;;;4921414;29;20084;-79
2023/08/09 12:29:47;;;;;;;0.00;0.00;;;28.30;54.80;;;;;;4921134;29;20032;-78
2023/08/09 12:32:13;;;;;;;0.00;0.00;;;28.20;55.10;;;;;;4922254;29;20582;-78
2023/08/09 12:34:39;;;;;;;0.00;0.00;;;28.10;55.90;;;;;;4922494;29;20032;-78
2023/08/09 12:37:05;;;;;;;0.00;0.00;;;28.10;54.80;;;;;;4922110;29;20088;-78
2023/08/09 12:39:31;;;;;;;0.00;0.00;;;28.20;55.80;;;;;;4905226;29;20032;-78
2023/08/09 12:41:57;;;;;;;0.00;0.00;;;28.20;53.90;;;;;;4921743;29;20113;-78
2023/08/09 12:44:24;;;;;;;0.00;0.00;;;28.30;54.90;;;;;;4921554;29;20498;-78
2023/08/09 12:46:49;;;;;;;0.00;0.00;;;28.20;55.10;;;;;;4922342;29;20035;-78
2023/08/09 12:49:15;;;;;;;0.13;0.00;;;28.30;55.90;;;;;;4922195;29;20032;-79
2023/08/09 12:51:40;;;;;;;0.00;0.00;;;28.30;55.40;;;;;;4904972;29;20024;-79
2023/08/09 12:54:08;;;;;;;0.00;0.00;;;28.30;55.00;;;;;;4922250;29;20028;-79
2023/08/09 12:56:33;;;;;;;0.00;0.00;;;28.30;55.60;;;;;;4921985;29;20024;-79
2023/08/09 12:59:00;;;;;;;0.00;0.00;;;28.50;55.80;;;;;;4921633;29;20099;-79
2023/08/09 13:01:25;;;;;;;0.00;0.00;;;28.60;56.20;;;;;;4921759;29;20083;-79
2023/08/09 13:03:51;;;;;;;0.00;0.00;;;28.70;55.00;;;;;;4921907;29;20518;-79
2023/08/09 13:06:18;;;;;;;0.00;0.00;;;28.70;54.10;;;;;;4921750;29;20047;-78
2023/08/09 13:08:44;;;;;;;0.00;0.00;;;28.80;54.80;;;;;;4921971;29;20028;-79
2023/08/09 13:11:11;;;;;;;0.00;0.00;;;28.80;54.10;;;;;;4922009;29;20084;-79
2023/08/09 13:13:37;;;;;;;0.00;0.00;;;28.90;54.10;;;;;;4921809;29;20039;-78
2023/08/09 13:16:06;;;;;;;0.00;0.00;;;28.80;54.30;;;;;;4921672;29;20031;-79
2023/08/09 13:18:35;;;;;;;0.00;0.00;;;28.90;54.90;;;;;;4921899;29;20066;-79
2023/08/09 13:21:03;;;;;;;0.00;0.00;;;28.70;54.80;;;;;;4904535;29;20063;-79
2023/08/09 13:23:29;;;;;;;0.00;0.00;;;28.70;54.00;;;;;;4921387;29;20031;-79
2023/08/09 13:25:55;;;;;;;0.00;0.00;;;28.70;55.20;;;;;;4921616;29;20107;-78
2023/08/09 13:28:20;;;;;;;0.00;0.00;;;28.60;54.20;;;;;;4921833;29;20079;-78
2023/08/09 13:30:46;;;;;;;0.00;0.00;;;28.60;54.80;;;;;;4904321;29;20048;-78
2023/08/09 13:33:12;;;;;;;0.03;0.03;;;28.60;55.20;;;;;;4921518;29;20114;-78
2023/08/09 13:35:38;;;;;;;0.00;0.00;;;28.60;55.90;;;;;;4921497;29;20024;-79
2023/08/09 13:38:04;;;;;;;0.00;0.00;;;28.50;56.10;;;;;;4904292;29;20035;-78
2023/08/09 13:40:31;;;;;;;0.00;0.00;;;28.50;55.50;;;;;;4921601;29;20024;-78
2023/08/09 13:42:57;;;;;;;0.00;0.00;;;28.50;55.80;;;;;;4921354;29;20032;-78
2023/08/09 13:45:22;;;;;;;0.03;0.03;;;28.30;55.40;;;;;;4904108;29;20024;-78
2023/08/09 13:47:48;;;;;;;0.00;0.00;;;28.50;55.80;;;;;;4921382;29;20479;-78
2023/08/09 13:50:14;;;;;;;0.00;0.00;;;28.60;54.90;;;;;;4921314;29;20478;-78
2023/08/09 13:52:42;;;;;;;0.10;0.10;;;28.80;55.20;;;;;;4921146;29;20506;-79
2023/08/09 13:55:08;;;;;;;0.10;0.10;;;29.00;56.50;;;;;;4904371;29;20025;-78
2023/08/09 13:57:34;;;;;;;0.10;0.10;;;29.40;55.30;;;;;;4925211;29;20096;-78
2023/08/09 14:00:03;;;;;;;0.00;0.00;;;29.90;54.80;;;;;;4924927;29;20106;-79
2023/08/09 14:02:29;;;;;;;0.05;0.05;;;30.00;54.70;;;;;;4925222;29;20490;-79
2023/08/09 14:04:55;;;;;;;0.00;0.00;;;29.80;52.10;;;;;;4925213;29;20035;-78
2023/08/09 14:07:20;;;;;;;0.00;0.00;;;29.60;53.60;;;;;;4925020;29;20032;-79
2023/08/09 14:09:46;;;;;;;0.00;0.00;;;29.40;54.10;;;;;;4925116;29;20028;-79
2023/08/09 14:12:12;;;;;;;0.00;0.00;;;29.30;53.90;;;;;;4925000;29;20099;-79
2023/08/09 14:14:37;;;;;;;0.10;0.10;;;29.30;54.00;;;;;;4925004;29;20028;-78
2023/08/09 14:17:03;;;;;;;0.00;0.00;;;29.30;53.50;;;;;;4924499;29;20451;-78
2023/08/09 14:19:29;;;;;;;0.00;0.00;;;29.30;55.00;;;;;;4923454;29;20032;-78
2023/08/09 14:21:55;;;;;;;0.10;0.10;;;29.40;53.10;;;;;;4923262;29;20032;-78
2023/08/09 14:24:20;;;;;;;0.00;0.00;;;29.70;53.70;;;;;;4924855;29;20036;-78
2023/08/09 14:26:46;;;;;;;0.00;0.00;;;29.80;53.30;;;;;;4924957;29;20032;-79
2023/08/09 14:29:14;;;;;;;0.10;0.10;;;30.10;52.90;;;;;;4924704;29;20032;-78
2023/08/09 14:31:41;;;;;;;0.00;0.00;;;30.20;52.10;;;;;;4924613;29;20052;-78
2023/08/09 14:34:07;;;;;;;0.00;0.00;;;30.20;51.10;;;;;;4924822;29;20032;-78
2023/08/09 14:36:33;;;;;;;0.10;0.10;;;30.20;52.00;;;;;;4911945;29;20032;-78
2023/08/09 14:38:58;;;;;;;0.10;0.10;;;30.30;53.30;;;;;;4924604;29;20103;-78
2023/08/09 14:41:24;;;;;;;0.10;0.10;;;30.40;53.20;;;;;;4924479;29;20032;-78
2023/08/09 14:43:50;;;;;;;0.10;0.10;;;30.40;52.30;;;;;;4924796;29;20025;-79
2023/08/09 14:46:16;;;;;;;0.00;0.00;;;30.40;52.70;;;;;;4907589;29;20035;-78
2023/08/09 14:48:42;;;;;;;0.00;0.00;;;30.30;51.40;;;;;;4923668;29;20068;-78
2023/08/09 14:51:09;;;;;;;0.00;0.00;;;30.10;51.70;;;;;;4906978;29;20032;-78
2023/08/09 14:53:37;;;;;;;0.00;0.00;;;29.70;53.20;;;;;;4922896;29;20107;-78
2023/08/09 14:56:02;;;;;;;0.00;0.00;;;29.30;53.20;;;;;;4924289;29;20038;-78
2023/08/09 14:58:28;;;;;;;0.00;0.00;;;28.90;54.30;;;;;;4924228;29;20032;-78
2023/08/09 15:00:54;;;;;;;0.00;0.00;;;28.70;54.80;;;;;;4923948;29;20032;-78
2023/08/09 15:03:19;;;;;;;0.00;0.00;;;28.50;55.60;;;;;;4907160;29;20440;-78
2023/08/09 15:05:45;;;;;;;0.00;0.00;;;28.70;56.00;;;;;;4924078;29;20119;-78
2023/08/09 15:08:11;;;;;;;0.00;0.00;;;28.70;55.00;;;;;;4922946;29;20024;-78
2023/08/09 15:10:37;;;;;;;0.00;0.00;;;28.80;55.80;;;;;;4924019;29;20033;-78
2023/08/09 15:13:03;;;;;;;0.05;0.05;;;28.80;54.50;;;;;;4923826;29;20095;-78
2023/08/09 15:15:32;;;;;;;0.00;0.00;;;28.60;54.90;;;;;;4924006;29;20032;-78
2023/08/09 15:17:58;;;;;;;0.00;0.00;;;28.60;54.90;;;;;;4924018;29;20020;-78
2023/08/09 15:20:27;;;;;;;0.00;0.00;;;28.80;54.30;;;;;;4923633;29;20119;-78
2023/08/09 15:22:53;;;;;;;0.00;0.00;;;28.80;54.50;;;;;;4923645;29;20020;-78
2023/08/09 15:25:23;;;;;;;0.00;0.00;;;28.60;55.50;;;;;;4924117;29;20116;-78
2023/08/09 15:27:51;;;;;;;0.00;0.00;;;28.60;54.60;;;;;;4923782;29;20052;-79
2023/08/09 15:30:18;;;;;;;0.00;0.00;;;28.70;54.80;;;;;;4923528;29;20039;-78
2023/08/09 15:32:46;;;;;;;0.10;0.10;;;29.00;54.70;;;;;;4923810;29;20451;-79
2023/08/09 15:35:13;;;;;;;0.00;0.00;;;29.30;54.80;;;;;;4923793;29;20079;-78
2023/08/09 15:37:39;;;;;;;0.00;0.00;;;29.60;54.60;;;;;;4906294;29;20032;-79
2023/08/09 15:40:06;;;;;;;0.00;0.00;;;29.40;54.10;;;;;;4923581;29;20044;-78
2023/08/09 15:42:32;;;;;;;0.00;0.00;;;29.20;55.30;;;;;;4906562;29;20020;-78
2023/08/09 15:44:59;;;;;;;0.00;0.00;;;29.10;55.50;;;;;;4923496;29;20161;-78
2023/08/09 15:47:24;;;;;;;0.00;0.00;;;28.90;55.50;;;;;;4923330;29;20521;-78
2023/08/09 15:49:50;;;;;;;0.00;0.00;;;28.60;56.70;;;;;;4923442;29;20031;-78
2023/08/09 15:52:18;;;;;;;0.00;0.00;;;28.50;57.00;;;;;;4923199;29;20449;-78
2023/08/09 15:54:44;;;;;;;0.00;0.00;;;28.30;57.40;;;;;;4906304;29;20032;-78
2023/08/09 15:57:10;;;;;;;0.00;0.00;;;28.00;58.00;;;;;;4923143;29;20034;-78
2023/08/09 15:59:35;;;;;;;0.00;0.00;;;27.70;58.60;;;;;;4923055;29;20032;-78
2023/08/09 16:02:01;;;;;;;0.00;0.00;;;27.70;58.60;;;;;;4920612;29;20055;-78
2023/08/09 16:04:27;;;;;;;0.00;0.00;;;27.80;59.00;;;;;;4914663;29;20608;-78
2023/08/09 16:06:54;;;;;;;0.00;0.00;;;27.90;58.60;;;;;;4905551;29;20098;-78
2023/08/09 16:09:22;;;;;;;0.00;0.00;;;28.00;57.70;;;;;;4922975;29;20032;-78
2023/08/09 16:11:48;;;;;;;0.00;0.00;;;28.00;57.50;;;;;;4922995;29;20020;-78
2023/08/09 16:14:13;;;;;;;0.00;0.00;;;27.90;58.40;;;;;;4922743;29;20028;-78
2023/08/09 16:16:40;;;;;;;0.00;0.00;;;27.80;58.10;;;;;;4922843;29;20024;-78
2023/08/09 16:19:09;;;;;;;0.00;0.00;;;27.50;58.50;;;;;;4922290;29;20032;-78
2023/08/09 16:21:35;;;;;;;0.00;0.00;;;27.50;58.40;;;;;;4922581;29;20032;-78
2023/08/09 16:24:02;;;;;;;0.00;0.00;;;27.60;58.10;;;;;;4922636;29;20055;-79
2023/08/09 16:26:30;;;;;;;0.00;0.00;;;27.60;57.90;;;;;;4922697;29;20020;-78
2023/08/09 16:28:56;;;;;;;0.00;0.00;;;27.80;57.80;;;;;;4921319;29;20032;-79
2023/08/09 16:31:22;;;;;;;0.00;0.00;;;27.80;57.20;;;;;;4922402;29;20056;-79
2023/08/09 16:33:49;;;;;;;0.00;0.00;;;27.80;57.30;;;;;;4921231;29;20032;-79
2023/08/09 16:36:15;;;;;;;0.00;0.00;;;27.80;57.80;;;;;;4922536;29;20394;-79
2023/08/09 16:38:40;;;;;;;0.00;0.00;;;27.80;58.10;;;;;;4922433;29;20032;-79
2023/08/09 16:41:06;;;;;;;0.00;0.00;;;27.80;58.10;;;;;;4904806;29;20031;-78
2023/08/09 16:43:37;;;;;;;0.00;0.00;;;27.80;58.50;;;;;;4905344;29;20063;-79
2023/08/09 16:46:04;;;;;;;0.00;0.00;;;27.60;57.90;;;;;;4922421;29;20075;-79
2023/08/09 16:48:30;;;;;;;0.00;0.00;;;27.60;58.50;;;;;;4922337;29;20028;-78
2023/08/09 16:50:56;;;;;;;0.00;0.00;;;27.60;58.70;;;;;;4905151;29;20024;-78
2023/08/09 16:53:22;;;;;;;0.00;0.00;;;27.50;58.70;;;;;;4921889;29;20600;-78
2023/08/09 16:55:48;;;;;;;0.00;0.00;;;27.50;58.50;;;;;;4922012;29;20395;-78
2023/08/09 16:58:13;;;;;;;0.00;0.00;;;27.40;59.10;;;;;;4920839;29;20028;-79
2023/08/09 17:00:39;;;;;;;0.00;0.00;;;27.30;59.00;;;;;;4921986;29;20031;-78
2023/08/09 17:03:05;;;;;;;0.00;0.00;;;27.40;59.30;;;;;;4921991;29;20042;-78
2023/08/09 17:05:31;;;;;;;0.00;0.00;;;27.30;59.00;;;;;;4904911;29;20024;-79
2023/08/09 17:07:57;;;;;;;0.00;0.00;;;27.20;58.30;;;;;;4921582;29;20030;-79
2023/08/09 17:10:26;;;;;;;0.00;0.00;;;27.20;58.90;;;;;;4921979;29;20020;-79
2023/08/09 17:12:52;;;;;;;0.00;0.00;;;27.10;58.80;;;;;;4904807;29;20036;-78
2023/08/09 17:15:17;;;;;;;0.00;0.00;;;27.00;58.80;;;;;;4904614;29;20151;-78
2023/08/09 17:17:43;;;;;;;0.00;0.00;;;26.90;59.30;;;;;;4921890;29;20539;-78